sensor_id;sensor_type;location;lat;lon;timestamp;pressure;altitude;pressure_sealevel;temperature;humidity
45357;BME280;31092;51.924;21.448;2022-07-29T00:01:18;100813.50;;;9.76;100.00
45357;BME280;31092;51.924;21.448;2022-07-29T00:03:43;100821.69;;;9.84;100.00
45357;BME280;31092;51.924;21.448;2022-07-29T00:06:09;100707.94;;;9.17;100.00
45357;BME280;31092;51.924;21.448;2022-07-29T00:08:34;100717.84;;;9.17;100.00
45357;BME280;31092;51.924;21.448;2022-07-29T00:11:01;100717.44;;;9.11;100.00
45357;BME280;31092;51.924;21.448;2022-07-29T00:13:27;100804.22;;;9.61;100.00
45357;BME280;31092;51.924;21.448;2022-07-29T00:15:52;100794.31;;;9.61;100.00
45357;BME280;31092;51.924;21.448;2022-07-29T00:18:18;100803.22;;;9.62;100.00
45357;BME280;31092;51.924;21.448;2022-07-29T00:20:43;100792.19;;;9.55;100.00
45357;BME280;31092;51.924;21.448;2022-07-29T00:23:09;100813.69;;;9.65;100.00
45357;BME280;31092;51.924;21.448;2022-07-29T00:25:34;100788.53;;;9.46;100.00
45357;BME280;31092;51.924;21.448;2022-07-29T00:28:00;100796.16;;;9.51;100.00
45357;BME280;31092;51.924;21.448;2022-07-29T00:30:25;100802.09;;;9.54;100.00
45357;BME280;31092;51.924;21.448;2022-07-29T00:32:51;100717.84;;;9.07;100.00
45357;BME280;31092;51.924;21.448;2022-07-29T00:35:16;100810.56;;;9.59;100.00
45357;BME280;31092;51.924;21.448;2022-07-29T00:38:00;100805.06;;;9.51;100.00
45357;BME280;31092;51.924;21.448;2022-07-29T00:40:26;100818.34;;;9.63;100.00
45357;BME280;31092;51.924;21.448;2022-07-29T00:42:52;100816.22;;;9.56;100.00
45357;BME280;31092;51.924;21.448;2022-07-29T00:45:18;100811.56;;;9.58;100.00
45357;BME280;31092;51.924;21.448;2022-07-29T00:47:43;100763.09;;;9.31;100.00
45357;BME280;31092;51.924;21.448;2022-07-29T00:50:11;100761.41;;;9.30;100.00
45357;BME280;31092;51.924;21.448;2022-07-29T00:52:39;100799.84;;;9.50;100.00
45357;BME280;31092;51.924;21.448;2022-07-29T00:55:08;100723.56;;;8.94;100.00
45357;BME280;31092;51.924;21.448;2022-07-29T00:57:35;100788.00;;;9.33;100.00
45357;BME280;31092;51.924;21.448;2022-07-29T01:00:03;100699.69;;;8.72;100.00
45357;BME280;31092;51.924;21.448;2022-07-29T01:02:29;100773.00;;;9.21;100.00
45357;BME280;31092;51.924;21.448;2022-07-29T01:04:55;100802.28;;;9.33;100.00
45357;BME280;31092;51.924;21.448;2022-07-29T01:07:24;100792.94;;;9.28;100.00
45357;BME280;31092;51.924;21.448;2022-07-29T01:09:51;100787.44;;;9.20;100.00
45357;BME280;31092;51.924;21.448;2022-07-29T01:12:25;100762.00;;;9.04;100.00
45357;BME280;31092;51.924;21.448;2022-07-29T01:14:52;100787.59;;;9.18;100.00
45357;BME280;31092;51.924;21.448;2022-07-29T01:29:26;100814.28;;;9.39;100.00
45357;BME280;31092;51.924;21.448;2022-07-29T01:31:57;100779.38;;;9.20;100.00
45357;BME280;31092;51.924;21.448;2022-07-29T01:34:29;100784.03;;;9.27;100.00
45357;BME280;31092;51.924;21.448;2022-07-29T01:37:18;100778.47;;;9.39;100.00
45357;BME280;31092;51.924;21.448;2022-07-29T01:39:47;100702.75;;;8.96;100.00
45357;BME280;31092;51.924;21.448;2022-07-29T01:44:57;100795.88;;;9.54;100.00
45357;BME280;31092;51.924;21.448;2022-07-29T01:47:33;100802.91;;;9.65;100.00
45357;BME280;31092;51.924;21.448;2022-07-29T01:50:00;100816.63;;;9.71;100.00
45357;BME280;31092;51.924;21.448;2022-07-29T01:52:55;100820.28;;;9.80;100.00
45357;BME280;31092;51.924;21.448;2022-07-29T01:55:25;100805.69;;;9.82;100.00
45357;BME280;31092;51.924;21.448;2022-07-29T01:57:53;100789.88;;;9.70;100.00
45357;BME280;31092;51.924;21.448;2022-07-29T02:00:21;100805.69;;;9.82;100.00
45357;BME280;31092;51.924;21.448;2022-07-29T02:02:48;100802.84;;;9.84;100.00
45357;BME280;31092;51.924;21.448;2022-07-29T02:05:17;100805.44;;;9.76;100.00
45357;BME280;31092;51.924;21.448;2022-07-29T02:07:46;100729.41;;;9.37;100.00
45357;BME280;31092;51.924;21.448;2022-07-29T02:10:13;100817.56;;;9.90;100.00
45357;BME280;31092;51.924;21.448;2022-07-29T02:12:40;100836.66;;;9.96;100.00
45357;BME280;31092;51.924;21.448;2022-07-29T02:15:08;100729.25;;;9.38;100.00
45357;BME280;31092;51.924;21.448;2022-07-29T02:18:25;100815.56;;;9.92;100.00
45357;BME280;31092;51.924;21.448;2022-07-29T02:20:31;100795.50;;;9.76;100.00
45357;BME280;31092;51.924;21.448;2022-07-29T02:22:58;100827.50;;;9.89;100.00
45357;BME280;31092;51.924;21.448;2022-07-29T02:25:25;100825.19;;;9.94;100.00
45357;BME280;31092;51.924;21.448;2022-07-29T02:27:52;100792.25;;;9.82;100.00
45357;BME280;31092;51.924;21.448;2022-07-29T02:30:20;100812.19;;;9.90;100.00
45357;BME280;31092;51.924;21.448;2022-07-29T02:32:48;100794.78;;;9.84;100.00
45357;BME280;31092;51.924;21.448;2022-07-29T02:35:16;100753.69;;;9.54;100.00
45357;BME280;31092;51.924;21.448;2022-07-29T02:37:43;100814.75;;;9.81;100.00
45357;BME280;31092;51.924;21.448;2022-07-29T02:40:14;100772.63;;;9.63;100.00
45357;BME280;31092;51.924;21.448;2022-07-29T02:42:41;100816.56;;;9.91;100.00
45357;BME280;31092;51.924;21.448;2022-07-29T02:45:07;100822.94;;;9.90;100.00
45357;BME280;31092;51.924;21.448;2022-07-29T02:47:40;100813.16;;;9.89;100.00
45357;BME280;31092;51.924;21.448;2022-07-29T02:50:21;100826.59;;;9.98;100.00
45357;BME280;31092;51.924;21.448;2022-07-29T02:52:55;100828.16;;;9.91;100.00
45357;BME280;31092;51.924;21.448;2022-07-29T02:55:36;100831.13;;;9.98;100.00
45357;BME280;31092;51.924;21.448;2022-07-29T02:58:12;100741.66;;;9.49;100.00
45357;BME280;31092;51.924;21.448;2022-07-29T03:00:40;100723.44;;;9.43;100.00
45357;BME280;31092;51.924;21.448;2022-07-29T03:03:13;100727.25;;;9.50;100.00
45357;BME280;31092;51.924;21.448;2022-07-29T03:05:40;100718.47;;;9.48;100.00
45357;BME280;31092;51.924;21.448;2022-07-29T03:08:10;100737.06;;;9.69;100.00
45357;BME280;31092;51.924;21.448;2022-07-29T03:10:38;100818.13;;;10.21;100.00
45357;BME280;31092;51.924;21.448;2022-07-29T03:13:05;100819.41;;;10.26;100.00
45357;BME280;31092;51.924;21.448;2022-07-29T03:15:31;100831.09;;;10.35;100.00
45357;BME280;31092;51.924;21.448;2022-07-29T03:17:58;100762.00;;;9.98;100.00
45357;BME280;31092;51.924;21.448;2022-07-29T03:20:24;100789.63;;;10.28;100.00
45357;BME280;31092;51.924;21.448;2022-07-29T03:22:50;100749.19;;;10.10;100.00
45357;BME280;31092;51.924;21.448;2022-07-29T03:25:18;100813.41;;;10.60;100.00
45357;BME280;31092;51.924;21.448;2022-07-29T03:27:44;100829.72;;;10.76;100.00
45357;BME280;31092;51.924;21.448;2022-07-29T03:30:11;100805.09;;;10.71;100.00
45357;BME280;31092;51.924;21.448;2022-07-29T03:32:37;100725.72;;;10.30;100.00
45357;BME280;31092;51.924;21.448;2022-07-29T03:35:04;100812.19;;;10.90;100.00
45357;BME280;31092;51.924;21.448;2022-07-29T03:37:30;100813.03;;;10.91;100.00
45357;BME280;31092;51.924;21.448;2022-07-29T03:39:57;100809.97;;;11.03;100.00
45357;BME280;31092;51.924;21.448;2022-07-29T03:42:25;100821.97;;;11.09;100.00
45357;BME280;31092;51.924;21.448;2022-07-29T03:45:02;100733.19;;;10.72;100.00
45357;BME280;31092;51.924;21.448;2022-07-29T03:47:29;100844.28;;;11.37;100.00
45357;BME280;31092;51.924;21.448;2022-07-29T03:50:15;100839.28;;;11.42;100.00
45357;BME280;31092;51.924;21.448;2022-07-29T03:52:45;100822.69;;;11.37;100.00
45357;BME280;31092;51.924;21.448;2022-07-29T03:55:11;100823.44;;;11.47;100.00
45357;BME280;31092;51.924;21.448;2022-07-29T03:57:37;100834.63;;;11.53;100.00
45357;BME280;31092;51.924;21.448;2022-07-29T04:00:05;100847.66;;;11.57;100.00
45357;BME280;31092;51.924;21.448;2022-07-29T04:02:32;100821.59;;;11.48;100.00
45357;BME280;31092;51.924;21.448;2022-07-29T04:05:00;100833.84;;;11.60;100.00
45357;BME280;31092;51.924;21.448;2022-07-29T04:07:26;100824.91;;;11.60;100.00
45357;BME280;31092;51.924;21.448;2022-07-29T04:09:52;100724.59;;;11.12;100.00
45357;BME280;31092;51.924;21.448;2022-07-29T04:12:17;100802.66;;;11.66;100.00
45357;BME280;31092;51.924;21.448;2022-07-29T04:14:43;100820.28;;;11.78;100.00
45357;BME280;31092;51.924;21.448;2022-07-29T04:17:08;100844.50;;;11.88;100.00
45357;BME280;31092;51.924;21.448;2022-07-29T04:19:34;100842.69;;;11.96;100.00
45357;BME280;31092;51.924;21.448;2022-07-29T04:22:00;100806.88;;;11.86;100.00
45357;BME280;31092;51.924;21.448;2022-07-29T04:24:27;100815.91;;;12.03;100.00
45357;BME280;31092;51.924;21.448;2022-07-29T04:26:53;100810.72;;;12.10;100.00
45357;BME280;31092;51.924;21.448;2022-07-29T04:29:18;100745.19;;;11.73;100.00
45357;BME280;31092;51.924;21.448;2022-07-29T04:31:45;100804.63;;;12.16;100.00
45357;BME280;31092;51.924;21.448;2022-07-29T04:34:11;100746.09;;;11.82;100.00
45357;BME280;31092;51.924;21.448;2022-07-29T04:36:37;100728.22;;;11.81;100.00
45357;BME280;31092;51.924;21.448;2022-07-29T04:39:03;100819.47;;;12.46;100.00
45357;BME280;31092;51.924;21.448;2022-07-29T04:41:29;100755.84;;;12.09;100.00
45357;BME280;31092;51.924;21.448;2022-07-29T04:43:55;100760.97;;;12.20;100.00
45357;BME280;31092;51.924;21.448;2022-07-29T04:46:21;100748.78;;;12.16;100.00
45357;BME280;31092;51.924;21.448;2022-07-29T04:48:47;100827.47;;;12.72;100.00
45357;BME280;31092;51.924;21.448;2022-07-29T04:51:14;100743.44;;;12.33;100.00
45357;BME280;31092;51.924;21.448;2022-07-29T04:53:39;100833.91;;;12.87;100.00
45357;BME280;31092;51.924;21.448;2022-07-29T04:56:05;100818.19;;;12.91;100.00
45357;BME280;31092;51.924;21.448;2022-07-29T04:58:31;100835.81;;;13.11;100.00
45357;BME280;31092;51.924;21.448;2022-07-29T05:00:59;100769.69;;;12.73;100.00
45357;BME280;31092;51.924;21.448;2022-07-29T05:03:25;100758.38;;;12.78;100.00
45357;BME280;31092;51.924;21.448;2022-07-29T05:05:51;100797.94;;;13.03;100.00
45357;BME280;31092;51.924;21.448;2022-07-29T05:08:16;100853.59;;;13.47;100.00
45357;BME280;31092;51.924;21.448;2022-07-29T05:10:42;100851.72;;;13.55;100.00
45357;BME280;31092;51.924;21.448;2022-07-29T05:13:08;100747.91;;;13.07;100.00
45357;BME280;31092;51.924;21.448;2022-07-29T05:15:37;100766.50;;;13.27;100.00
45357;BME280;31092;51.924;21.448;2022-07-29T05:18:04;100843.56;;;13.80;100.00
45357;BME280;31092;51.924;21.448;2022-07-29T05:20:30;100854.19;;;14.06;100.00
45357;BME280;31092;51.924;21.448;2022-07-29T05:23:00;100775.38;;;13.84;100.00
45357;BME280;31092;51.924;21.448;2022-07-29T05:25:36;100766.88;;;13.96;100.00
45357;BME280;31092;51.924;21.448;2022-07-29T05:28:05;100829.94;;;14.60;100.00
45357;BME280;31092;51.924;21.448;2022-07-29T05:30:30;100759.13;;;14.55;100.00
45357;BME280;31092;51.924;21.448;2022-07-29T05:32:56;100752.72;;;15.02;100.00
45357;BME280;31092;51.924;21.448;2022-07-29T05:35:21;100759.25;;;15.30;100.00
45357;BME280;31092;51.924;21.448;2022-07-29T05:37:47;100773.19;;;15.95;100.00
45357;BME280;31092;51.924;21.448;2022-07-29T05:40:13;100828.97;;;16.57;100.00
45357;BME280;31092;51.924;21.448;2022-07-29T05:42:39;100773.91;;;16.69;100.00
45357;BME280;31092;51.924;21.448;2022-07-29T05:45:05;100834.06;;;17.39;100.00
45357;BME280;31092;51.924;21.448;2022-07-29T05:47:30;100822.28;;;17.60;100.00
45357;BME280;31092;51.924;21.448;2022-07-29T05:49:56;100810.44;;;17.74;100.00
45357;BME280;31092;51.924;21.448;2022-07-29T05:52:40;100806.72;;;17.54;100.00
45357;BME280;31092;51.924;21.448;2022-07-29T05:55:06;100819.50;;;17.53;100.00
45357;BME280;31092;51.924;21.448;2022-07-29T05:57:34;100807.19;;;17.79;100.00
45357;BME280;31092;51.924;21.448;2022-07-29T06:00:00;100807.41;;;17.84;100.00
45357;BME280;31092;51.924;21.448;2022-07-29T06:02:25;100772.31;;;17.74;100.00
45357;BME280;31092;51.924;21.448;2022-07-29T06:04:51;100744.13;;;17.60;100.00
45357;BME280;31092;51.924;21.448;2022-07-29T06:07:17;100793.03;;;18.03;100.00
45357;BME280;31092;51.924;21.448;2022-07-29T06:09:43;100727.78;;;17.88;100.00
45357;BME280;31092;51.924;21.448;2022-07-29T06:12:12;100781.31;;;18.03;100.00
45357;BME280;31092;51.924;21.448;2022-07-29T06:14:40;100733.53;;;17.72;100.00
45357;BME280;31092;51.924;21.448;2022-07-29T06:17:06;100795.78;;;18.51;100.00
45357;BME280;31092;51.924;21.448;2022-07-29T06:19:34;100802.88;;;18.94;100.00
45357;BME280;31092;51.924;21.448;2022-07-29T06:22:00;100794.88;;;18.79;100.00
45357;BME280;31092;51.924;21.448;2022-07-29T06:24:26;100783.53;;;18.95;100.00
45357;BME280;31092;51.924;21.448;2022-07-29T06:26:51;100761.09;;;19.00;100.00
45357;BME280;31092;51.924;21.448;2022-07-29T06:29:18;100790.94;;;19.14;100.00
45357;BME280;31092;51.924;21.448;2022-07-29T06:31:43;100744.28;;;18.89;100.00
45357;BME280;31092;51.924;21.448;2022-07-29T06:34:09;100773.91;;;19.19;100.00
45357;BME280;31092;51.924;21.448;2022-07-29T06:36:36;100785.47;;;19.28;100.00
45357;BME280;31092;51.924;21.448;2022-07-29T06:39:07;100727.47;;;18.99;100.00
45357;BME280;31092;51.924;21.448;2022-07-29T06:41:33;100783.16;;;19.45;100.00
45357;BME280;31092;51.924;21.448;2022-07-29T06:43:59;100765.94;;;19.44;100.00
45357;BME280;31092;51.924;21.448;2022-07-29T06:46:24;100768.44;;;19.52;100.00
45357;BME280;31092;51.924;21.448;2022-07-29T06:48:51;100775.81;;;19.72;100.00
45357;BME280;31092;51.924;21.448;2022-07-29T06:51:18;100772.44;;;19.76;100.00
45357;BME280;31092;51.924;21.448;2022-07-29T06:53:44;100776.63;;;19.92;100.00
45357;BME280;31092;51.924;21.448;2022-07-29T06:56:09;100771.34;;;19.91;100.00
45357;BME280;31092;51.924;21.448;2022-07-29T06:58:35;100774.91;;;19.98;100.00
45357;BME280;31092;51.924;21.448;2022-07-29T07:01:03;100699.09;;;19.53;100.00
45357;BME280;31092;51.924;21.448;2022-07-29T07:03:29;100776.38;;;20.00;100.00
45357;BME280;31092;51.924;21.448;2022-07-29T07:05:55;100776.13;;;20.08;100.00
45357;BME280;31092;51.924;21.448;2022-07-29T07:08:21;100783.88;;;20.25;100.00
45357;BME280;31092;51.924;21.448;2022-07-29T07:10:48;100790.53;;;20.42;100.00
45357;BME280;31092;51.924;21.448;2022-07-29T07:13:13;100776.38;;;20.59;100.00
45357;BME280;31092;51.924;21.448;2022-07-29T07:15:43;100726.81;;;20.35;100.00
45357;BME280;31092;51.924;21.448;2022-07-29T07:18:09;100730.28;;;20.49;100.00
45357;BME280;31092;51.924;21.448;2022-07-29T07:20:35;100783.09;;;20.94;100.00
45357;BME280;31092;51.924;21.448;2022-07-29T07:23:01;100763.09;;;20.94;100.00
45357;BME280;31092;51.924;21.448;2022-07-29T07:25:27;100773.38;;;20.98;100.00
45357;BME280;31092;51.924;21.448;2022-07-29T07:27:53;100711.69;;;20.71;100.00
45357;BME280;31092;51.924;21.448;2022-07-29T07:30:21;100764.25;;;21.11;100.00
45357;BME280;31092;51.924;21.448;2022-07-29T07:32:47;100778.28;;;21.21;100.00
45357;BME280;31092;51.924;21.448;2022-07-29T07:35:13;100778.84;;;21.30;100.00
45357;BME280;31092;51.924;21.448;2022-07-29T07:37:39;100761.94;;;21.40;100.00
45357;BME280;31092;51.924;21.448;2022-07-29T07:40:10;100767.69;;;21.57;100.00
45357;BME280;31092;51.924;21.448;2022-07-29T07:42:39;100767.09;;;21.73;100.00
45357;BME280;31092;51.924;21.448;2022-07-29T07:45:05;100761.78;;;21.78;100.00
45357;BME280;31092;51.924;21.448;2022-07-29T07:47:32;100719.50;;;21.67;100.00
45357;BME280;31092;51.924;21.448;2022-07-29T07:49:57;100773.00;;;22.13;100.00
45357;BME280;31092;51.924;21.448;2022-07-29T07:52:23;100753.56;;;22.15;100.00
45357;BME280;31092;51.924;21.448;2022-07-29T07:54:49;100758.66;;;22.30;100.00
45357;BME280;31092;51.924;21.448;2022-07-29T07:57:15;100749.34;;;22.49;100.00
45357;BME280;31092;51.924;21.448;2022-07-29T07:59:41;100759.09;;;22.75;100.00
45357;BME280;31092;51.924;21.448;2022-07-29T08:02:07;100760.53;;;22.96;100.00
45357;BME280;31092;51.924;21.448;2022-07-29T08:04:33;100746.59;;;22.91;100.00
45357;BME280;31092;51.924;21.448;2022-07-29T08:07:00;100765.81;;;23.09;100.00
45357;BME280;31092;51.924;21.448;2022-07-29T08:09:27;100695.09;;;22.63;100.00
45357;BME280;31092;51.924;21.448;2022-07-29T08:11:52;100770.56;;;23.02;100.00
45357;BME280;31092;51.924;21.448;2022-07-29T08:14:19;100768.03;;;23.01;100.00
45357;BME280;31092;51.924;21.448;2022-07-29T08:16:44;100767.97;;;23.19;100.00
45357;BME280;31092;51.924;21.448;2022-07-29T08:19:10;100768.09;;;23.24;100.00
45357;BME280;31092;51.924;21.448;2022-07-29T08:21:36;100759.84;;;23.12;100.00
45357;BME280;31092;51.924;21.448;2022-07-29T08:24:03;100766.28;;;23.06;100.00
45357;BME280;31092;51.924;21.448;2022-07-29T08:26:46;100761.25;;;23.15;100.00
45357;BME280;31092;51.924;21.448;2022-07-29T08:29:12;100764.72;;;23.10;100.00
45357;BME280;31092;51.924;21.448;2022-07-29T08:31:38;100770.78;;;23.01;100.00
45357;BME280;31092;51.924;21.448;2022-07-29T08:34:04;100761.88;;;23.17;100.00
45357;BME280;31092;51.924;21.448;2022-07-29T08:36:31;100757.13;;;23.24;100.00
45357;BME280;31092;51.924;21.448;2022-07-29T08:38:57;100759.72;;;23.19;100.00
45357;BME280;31092;51.924;21.448;2022-07-29T08:41:23;100746.84;;;23.43;100.00
45357;BME280;31092;51.924;21.448;2022-07-29T08:43:49;100688.19;;;23.37;100.00
45357;BME280;31092;51.924;21.448;2022-07-29T08:46:15;100765.38;;;24.06;100.00
45357;BME280;31092;51.924;21.448;2022-07-29T08:48:42;100743.53;;;24.28;100.00
45357;BME280;31092;51.924;21.448;2022-07-29T08:51:08;100744.31;;;24.52;100.00
45357;BME280;31092;51.924;21.448;2022-07-29T08:53:33;100701.38;;;24.40;100.00
45357;BME280;31092;51.924;21.448;2022-07-29T08:56:00;100695.50;;;24.48;100.00
45357;BME280;31092;51.924;21.448;2022-07-29T08:58:31;100761.03;;;24.63;100.00
45357;BME280;31092;51.924;21.448;2022-07-29T09:00:57;100747.06;;;24.12;100.00
45357;BME280;31092;51.924;21.448;2022-07-29T09:03:30;100749.25;;;23.86;100.00
45357;BME280;31092;51.924;21.448;2022-07-29T09:05:58;100753.06;;;23.85;100.00
45357;BME280;31092;51.924;21.448;2022-07-29T09:08:24;100694.84;;;23.77;100.00
45357;BME280;31092;51.924;21.448;2022-07-29T09:10:50;100755.41;;;24.57;100.00
45357;BME280;31092;51.924;21.448;2022-07-29T09:13:17;100739.88;;;24.80;100.00
45357;BME280;31092;51.924;21.448;2022-07-29T09:15:43;100739.22;;;25.06;100.00
45357;BME280;31092;51.924;21.448;2022-07-29T09:18:08;100719.63;;;25.20;100.00
45357;BME280;31092;51.924;21.448;2022-07-29T09:20:34;100723.38;;;25.14;100.00
45357;BME280;31092;51.924;21.448;2022-07-29T09:23:18;100690.13;;;24.41;100.00
45357;BME280;31092;51.924;21.448;2022-07-29T09:25:43;100692.91;;;23.89;100.00
45357;BME280;31092;51.924;21.448;2022-07-29T09:28:11;100686.25;;;23.50;100.00
45357;BME280;31092;51.924;21.448;2022-07-29T09:30:57;100729.91;;;24.22;100.00
45357;BME280;31092;51.924;21.448;2022-07-29T09:33:24;100731.66;;;24.68;100.00
45357;BME280;31092;51.924;21.448;2022-07-29T09:36:03;100735.47;;;24.96;100.00
45357;BME280;31092;51.924;21.448;2022-07-29T09:38:29;100639.41;;;25.04;100.00
45357;BME280;31092;51.924;21.448;2022-07-29T09:40:57;100649.09;;;25.41;100.00
45357;BME280;31092;51.924;21.448;2022-07-29T09:43:22;100710.69;;;26.07;100.00
45357;BME280;31092;51.924;21.448;2022-07-29T09:45:48;100724.22;;;26.31;100.00
45357;BME280;31092;51.924;21.448;2022-07-29T09:48:23;100707.91;;;26.51;100.00
45357;BME280;31092;51.924;21.448;2022-07-29T09:50:49;100660.78;;;25.87;99.63
45357;BME280;31092;51.924;21.448;2022-07-29T09:53:36;100716.28;;;25.90;98.73
45357;BME280;31092;51.924;21.448;2022-07-29T09:56:03;100715.47;;;25.73;100.00
45357;BME280;31092;51.924;21.448;2022-07-29T09:58:28;100671.41;;;25.39;100.00
45357;BME280;31092;51.924;21.448;2022-07-29T10:00:55;100717.34;;;25.89;100.00
45357;BME280;31092;51.924;21.448;2022-07-29T10:03:21;100718.06;;;25.79;98.28
45357;BME280;31092;51.924;21.448;2022-07-29T10:06:07;100700.16;;;25.82;95.97
45357;BME280;31092;51.924;21.448;2022-07-29T10:08:33;100660.47;;;25.66;96.71
45357;BME280;31092;51.924;21.448;2022-07-29T10:11:11;100663.53;;;25.87;98.28
45357;BME280;31092;51.924;21.448;2022-07-29T10:13:38;100712.09;;;26.10;98.99
45357;BME280;31092;51.924;21.448;2022-07-29T10:16:04;100702.34;;;26.02;98.10
45357;BME280;31092;51.924;21.448;2022-07-29T10:18:29;100684.75;;;25.86;96.64
45357;BME280;31092;51.924;21.448;2022-07-29T10:20:55;100631.72;;;25.40;97.35
45357;BME280;31092;51.924;21.448;2022-07-29T10:23:22;100683.00;;;25.41;97.07
45357;BME280;31092;51.924;21.448;2022-07-29T10:25:48;100683.28;;;25.06;98.60
45357;BME280;31092;51.924;21.448;2022-07-29T10:28:14;100699.94;;;24.66;99.13
45357;BME280;31092;51.924;21.448;2022-07-29T10:30:40;100646.28;;;23.82;99.16
45357;BME280;31092;51.924;21.448;2022-07-29T10:33:28;100701.28;;;23.82;100.00
45357;BME280;31092;51.924;21.448;2022-07-29T10:36:15;100688.88;;;23.56;100.00
45357;BME280;31092;51.924;21.448;2022-07-29T10:41:58;100700.44;;;23.58;100.00
45357;BME280;31092;51.924;21.448;2022-07-29T10:44:25;100649.94;;;23.24;100.00
45357;BME280;31092;51.924;21.448;2022-07-29T10:46:52;100634.03;;;23.14;100.00
45357;BME280;31092;51.924;21.448;2022-07-29T10:49:22;100700.09;;;23.55;100.00
45357;BME280;31092;51.924;21.448;2022-07-29T10:54:15;100666.50;;;23.76;100.00
45357;BME280;31092;51.924;21.448;2022-07-29T10:56:41;100657.69;;;24.31;100.00
45357;BME280;31092;51.924;21.448;2022-07-29T11:01:45;100628.25;;;24.94;98.24
45357;BME280;31092;51.924;21.448;2022-07-29T11:04:11;100676.91;;;25.39;92.46
45357;BME280;31092;51.924;21.448;2022-07-29T11:09:30;100661.56;;;25.65;94.46
45357;BME280;31092;51.924;21.448;2022-07-29T11:11:56;100609.84;;;25.34;93.51
45357;BME280;31092;51.924;21.448;2022-07-29T11:17:17;100661.56;;;25.09;94.20
45357;BME280;31092;51.924;21.448;2022-07-29T11:19:43;100669.00;;;25.09;98.31
45357;BME280;31092;51.924;21.448;2022-07-29T11:22:12;100653.06;;;25.11;98.61
45357;BME280;31092;51.924;21.448;2022-07-29T11:25:15;100655.22;;;25.26;96.06
45357;BME280;31092;51.924;21.448;2022-07-29T11:27:41;100584.84;;;24.84;96.43
45357;BME280;31092;51.924;21.448;2022-07-29T11:30:07;100662.06;;;25.23;96.27
45357;BME280;31092;51.924;21.448;2022-07-29T11:32:38;100658.47;;;25.06;93.01
45357;BME280;31092;51.924;21.448;2022-07-29T11:35:17;100669.16;;;25.02;92.99
45357;BME280;31092;51.924;21.448;2022-07-29T11:37:46;100621.81;;;24.55;93.31
45357;BME280;31092;51.924;21.448;2022-07-29T11:40:13;100656.94;;;24.48;93.66
45357;BME280;31092;51.924;21.448;2022-07-29T11:42:41;100648.50;;;24.26;94.04
45357;BME280;31092;51.924;21.448;2022-07-29T11:47:48;100649.59;;;23.96;94.67
45357;BME280;31092;51.924;21.448;2022-07-29T11:50:27;100665.88;;;24.26;98.37
45357;BME280;31092;51.924;21.448;2022-07-29T11:52:53;100647.94;;;24.52;99.47
45357;BME280;31092;51.924;21.448;2022-07-29T11:55:21;100584.94;;;24.56;100.00
45357;BME280;31092;51.924;21.448;2022-07-29T11:57:53;100646.69;;;25.27;99.65
45357;BME280;31092;51.924;21.448;2022-07-29T12:00:25;100591.00;;;24.92;97.23
45357;BME280;31092;51.924;21.448;2022-07-29T12:02:51;100627.56;;;25.04;95.93
45357;BME280;31092;51.924;21.448;2022-07-29T12:05:18;100638.41;;;24.94;95.25
45357;BME280;31092;51.924;21.448;2022-07-29T12:07:44;100631.50;;;24.91;95.71
45357;BME280;31092;51.924;21.448;2022-07-29T12:10:10;100632.31;;;25.25;97.20
45357;BME280;31092;51.924;21.448;2022-07-29T12:12:36;100641.63;;;25.58;96.63
45357;BME280;31092;51.924;21.448;2022-07-29T12:17:37;100637.56;;;25.44;93.21
45357;BME280;31092;51.924;21.448;2022-07-29T12:20:05;100584.56;;;25.03;91.91
45357;BME280;31092;51.924;21.448;2022-07-29T12:22:40;100636.16;;;25.07;91.36
45357;BME280;31092;51.924;21.448;2022-07-29T12:25:09;100635.84;;;24.87;92.37
45357;BME280;31092;51.924;21.448;2022-07-29T12:27:36;100568.28;;;24.34;93.20
45357;BME280;31092;51.924;21.448;2022-07-29T12:30:10;100577.72;;;24.38;95.50
45357;BME280;31092;51.924;21.448;2022-07-29T12:32:42;100600.59;;;24.72;93.42
45357;BME280;31092;51.924;21.448;2022-07-29T12:35:10;100570.16;;;24.62;94.81
45357;BME280;31092;51.924;21.448;2022-07-29T12:37:39;100636.25;;;24.79;92.80
45357;BME280;31092;51.924;21.448;2022-07-29T12:40:07;100557.16;;;24.29;94.49
45357;BME280;31092;51.924;21.448;2022-07-29T12:42:33;100565.41;;;24.41;96.56
45357;BME280;31092;51.924;21.448;2022-07-29T12:45:00;100566.81;;;24.43;98.54
45357;BME280;31092;51.924;21.448;2022-07-29T12:47:26;100616.22;;;24.83;98.53
45357;BME280;31092;51.924;21.448;2022-07-29T12:50:11;100549.28;;;24.49;97.57
45357;BME280;31092;51.924;21.448;2022-07-29T12:52:39;100563.91;;;24.67;97.85
45357;BME280;31092;51.924;21.448;2022-07-29T12:55:05;100616.22;;;25.17;96.32
45357;BME280;31092;51.924;21.448;2022-07-29T12:57:31;100559.38;;;24.94;91.75
45357;BME280;31092;51.924;21.448;2022-07-29T13:00:07;100621.97;;;25.54;92.00
45357;BME280;31092;51.924;21.448;2022-07-29T13:02:34;100593.47;;;25.71;91.22
45357;BME280;31092;51.924;21.448;2022-07-29T13:05:00;100609.84;;;25.77;89.68
45357;BME280;31092;51.924;21.448;2022-07-29T13:07:31;100547.13;;;25.46;90.75
45357;BME280;31092;51.924;21.448;2022-07-29T13:10:19;100599.91;;;25.76;91.54
45357;BME280;31092;51.924;21.448;2022-07-29T13:13:14;100603.69;;;25.92;92.31
45357;BME280;31092;51.924;21.448;2022-07-29T13:15:44;100587.44;;;25.96;88.06